Decoded Metar for KNGP (C. CHRISTI NAS in TX, USA) (IATA:NGP) | Meteo·Mobile Aviation Weather
aviador You're here:

KNGP Decoded Metar

C. CHRISTI NAS in TX, USA
Report Time2019-06-27 07:56:00
UTC Time2019-06-27 08:05:03
Flight Rules vfr VFR
Wind140° at 08 kt
W.Decomp.*RWY 13: 8.0 kt HW 0.6 kt RCW
RWY 17: 6.5 kt HW 4.7 kt LCW
RWY 22: 0.6 kt HW 8 kt LCW
Visibility9999 m
Phenomena:N/A
Clouds:N/A
Expected CloudBase > 400 ft AGL from Temp-Dew spread
CeilingNone
Temp28°C (ISA +13)
Dew Point27°C (94% RH)
Heat Index34.5°C
QNH1019 hPa
Density Alt1,785 ft
Elevation20 ft
Report Wrong Elevation
Raw Report
KNGP 270756Z AUTO 14008KT 7SM CLR 28/27 A3008 RMK AO2 SLP185
T02780272 $=

Extra information for KNGP:More info

Metar Taf Metar & Taf Last 4 Metars F.Rules Stats Wind Profile Meteogram Temp Stats Airport Information Weather charts Add Link Nearby VenuesMetar ALERT Operation Metar Decoded Social comments

AIRNAV info for KNGP